Time;durP1;ratioP1;P1;durP2;ratioP2;P2;SDS_P1;SDS_P2;PMS_P1;PMS_P2;Temp;Humidity;BMP_temperature;BMP_pressure;BME280_temperature;BME280_humidity;BME280_pressure;Samples;Min_cycle;Max_cycle;Signal;HPM_P1;HPM_P2
2024/02/28 00:01:52;;;;;;;7.75;7.00;;;6.40;99.90;;;;;;5043425;28;20273;-82
2024/02/28 00:04:19;;;;;;;6.78;6.28;;;6.40;99.90;;;;;;5051697;28;20210;-80
2024/02/28 00:06:46;;;;;;;5.53;5.07;;;6.40;99.90;;;;;;5060379;28;20201;-81
2024/02/28 00:09:14;;;;;;;6.82;6.20;;;6.50;99.90;;;;;;5040149;28;20204;-82
2024/02/28 00:11:44;;;;;;;6.38;5.97;;;6.50;99.90;;;;;;5038922;28;20758;-81
2024/02/28 00:14:13;;;;;;;9.52;7.03;;;6.50;99.90;;;;;;5020101;28;20312;-84
2024/02/28 00:16:41;;;;;;;11.85;8.07;;;6.50;99.90;;;;;;5047546;28;20525;-80
2024/02/28 00:19:11;;;;;;;17.60;6.32;;;6.50;99.90;;;;;;5057500;28;20218;-82
2024/02/28 00:21:39;;;;;;;6.35;5.75;;;6.50;99.90;;;;;;5050185;28;20216;-81
2024/02/28 00:24:07;;;;;;;6.25;5.82;;;6.50;99.90;;;;;;5049640;28;20231;-82
2024/02/28 00:26:34;;;;;;;9.60;8.90;;;6.50;99.90;;;;;;5043469;28;20224;-82
2024/02/28 00:29:02;;;;;;;8.63;7.78;;;6.50;99.90;;;;;;5045988;28;20208;-82
2024/02/28 00:31:29;;;;;;;5.22;4.82;;;6.40;99.90;;;;;;5037946;28;20528;-82
2024/02/28 00:33:56;;;;;;;8.82;8.05;;;6.50;99.90;;;;;;5038777;28;20314;-82
2024/02/28 00:36:23;;;;;;;13.32;12.02;;;6.50;99.90;;;;;;5051360;28;20253;-81
2024/02/28 00:38:56;;;;;;;5.00;4.72;;;6.50;99.90;;;;;;5036994;28;20291;-82
2024/02/28 00:41:23;;;;;;;3.63;3.42;;;6.50;99.90;;;;;;5042614;28;20231;-82
2024/02/28 00:43:50;;;;;;;6.45;6.00;;;6.50;99.90;;;;;;5039404;28;20412;-80
2024/02/28 00:46:17;;;;;;;8.07;7.30;;;6.50;99.90;;;;;;5037253;28;20229;-82
2024/02/28 00:48:44;;;;;;;6.03;5.60;;;6.50;99.90;;;;;;5037043;28;20211;-80
2024/02/28 00:51:11;;;;;;;9.40;6.88;;;6.50;99.90;;;;;;5040613;28;20220;-80
2024/02/28 00:53:39;;;;;;;7.68;7.07;;;6.50;99.90;;;;;;5040413;28;20242;-80
2024/02/28 00:56:06;;;;;;;23.60;5.75;;;6.50;99.90;;;;;;5040425;28;20205;-82
2024/02/28 00:58:33;;;;;;;7.35;6.78;;;6.50;99.90;;;;;;5049343;28;20212;-81
2024/02/28 01:01:00;;;;;;;7.72;6.78;;;6.50;99.90;;;;;;5052735;28;20236;-82
2024/02/28 01:03:27;;;;;;;7.68;7.05;;;6.40;99.90;;;;;;5050889;28;20239;-82
2024/02/28 01:05:54;;;;;;;6.43;5.85;;;6.50;99.90;;;;;;5050237;28;20253;-82
2024/02/28 01:08:22;;;;;;;9.40;8.70;;;6.50;99.90;;;;;;5038078;28;20496;-80
2024/02/28 01:10:49;;;;;;;12.98;6.70;;;6.50;99.90;;;;;;5040780;28;20273;-81
2024/02/28 01:13:16;;;;;;;5.30;4.85;;;6.40;99.90;;;;;;5033499;28;20199;-81
2024/02/28 01:15:43;;;;;;;8.73;7.90;;;6.50;99.90;;;;;;5045566;28;20273;-80
2024/02/28 01:18:10;;;;;;;4.75;4.35;;;6.50;99.90;;;;;;5044623;28;20216;-81
2024/02/28 01:20:37;;;;;;;8.07;7.47;;;6.50;99.90;;;;;;5041930;28;20212;-81
2024/02/28 01:23:05;;;;;;;12.07;10.88;;;6.50;99.90;;;;;;5041079;28;20239;-81
2024/02/28 01:25:32;;;;;;;6.22;5.82;;;6.50;99.90;;;;;;5049271;28;20207;-82
2024/02/28 01:27:59;;;;;;;7.95;7.32;;;6.50;99.90;;;;;;5051372;28;20495;-81
2024/02/28 01:30:26;;;;;;;6.47;5.97;;;6.50;99.90;;;;;;5053626;28;20211;-81
2024/02/28 01:32:53;;;;;;;10.27;9.52;;;6.50;99.90;;;;;;5052311;28;20211;-80
2024/02/28 01:35:20;;;;;;;10.00;9.02;;;6.50;99.90;;;;;;5043493;28;20205;-81
2024/02/28 01:37:47;;;;;;;10.20;9.05;;;6.60;99.90;;;;;;5040888;28;20341;-83
2024/02/28 01:40:14;;;;;;;9.80;9.02;;;6.60;99.90;;;;;;5040970;28;20223;-82
2024/02/28 01:42:41;;;;;;;10.27;9.52;;;6.50;99.90;;;;;;5047070;28;20396;-81
2024/02/28 01:45:14;;;;;;;8.63;7.80;;;6.50;99.90;;;;;;5045454;28;20214;-81
2024/02/28 01:47:42;;;;;;;10.10;9.07;;;6.50;99.90;;;;;;5038230;28;20205;-80
2024/02/28 01:50:10;;;;;;;5.50;5.13;;;6.50;99.90;;;;;;5045195;28;20220;-80
2024/02/28 01:52:38;;;;;;;9.75;9.15;;;6.50;99.90;;;;;;5048354;28;20204;-80
2024/02/28 01:55:06;;;;;;;4.95;4.50;;;6.50;99.90;;;;;;5058328;28;20282;-80
2024/02/28 01:57:34;;;;;;;10.45;6.93;;;6.50;99.90;;;;;;5043221;28;20278;-82
2024/02/28 02:00:02;;;;;;;6.43;5.78;;;6.50;99.90;;;;;;5040777;28;20211;-81
2024/02/28 02:02:28;;;;;;;2.92;2.83;;;6.50;99.90;;;;;;5032532;28;20213;-84
2024/02/28 02:04:57;;;;;;;6.15;5.65;;;6.50;99.90;;;;;;5057731;28;20231;-81
2024/02/28 02:07:25;;;;;;;8.57;5.03;;;6.50;99.90;;;;;;5046716;28;20658;-82
2024/02/28 02:09:54;;;;;;;6.63;5.45;;;6.40;99.90;;;;;;5045391;28;20215;-83
2024/02/28 02:12:21;;;;;;;5.40;5.00;;;6.40;99.90;;;;;;5033106;28;20703;-81
2024/02/28 02:14:49;;;;;;;3.65;3.45;;;6.40;99.90;;;;;;5043026;28;20212;-80
2024/02/28 02:17:16;;;;;;;3.13;2.97;;;6.50;99.90;;;;;;5040351;28;20773;-79
2024/02/28 02:19:43;;;;;;;4.22;3.88;;;6.40;99.90;;;;;;5051603;28;20274;-80
2024/02/28 02:22:13;;;;;;;2.42;2.33;;;6.50;99.90;;;;;;5041276;28;20209;-80
2024/02/28 02:24:41;;;;;;;4.75;4.38;;;6.50;99.90;;;;;;5044272;28;20263;-81
2024/02/28 02:27:08;;;;;;;5.97;4.32;;;6.50;99.90;;;;;;5041556;28;20243;-80
2024/02/28 02:29:35;;;;;;;9.20;6.57;;;6.50;99.90;;;;;;5059014;28;20248;-81
2024/02/28 02:32:02;;;;;;;7.85;5.40;;;6.30;99.90;;;;;;5048265;28;20264;-80
2024/02/28 02:34:29;;;;;;;6.95;6.30;;;6.40;99.90;;;;;;5053421;28;20214;-80
2024/02/28 02:36:56;;;;;;;3.30;3.03;;;6.30;99.90;;;;;;5052625;28;20204;-82
2024/02/28 02:39:23;;;;;;;3.08;2.88;;;6.50;99.90;;;;;;5026467;28;20205;-81
2024/02/28 02:41:50;;;;;;;4.70;4.40;;;6.50;99.90;;;;;;5035109;28;20225;-80
2024/02/28 02:44:17;;;;;;;2.35;2.25;;;6.50;99.90;;;;;;5041835;28;20618;-81
2024/02/28 02:46:44;;;;;;;8.35;5.93;;;6.50;99.90;;;;;;5048844;28;20208;-81
2024/02/28 02:49:11;;;;;;;4.97;4.53;;;6.50;99.90;;;;;;5045304;28;20205;-81
2024/02/28 02:51:38;;;;;;;9.05;8.32;;;6.40;99.90;;;;;;5039720;28;20286;-81
2024/02/28 02:54:05;;;;;;;4.78;4.00;;;6.50;99.90;;;;;;5047639;28;20516;-80
2024/02/28 02:56:32;;;;;;;2.83;2.60;;;6.50;99.90;;;;;;5048002;28;20207;-80
2024/02/28 02:58:59;;;;;;;5.45;5.07;;;6.50;99.90;;;;;;5049865;28;20295;-81
2024/02/28 03:01:26;;;;;;;4.30;4.03;;;6.60;99.90;;;;;;5035830;28;20199;-80
2024/02/28 03:03:53;;;;;;;6.55;5.50;;;6.50;99.90;;;;;;5051862;28;20666;-80
2024/02/28 03:06:20;;;;;;;6.20;4.53;;;6.50;99.90;;;;;;5048630;28;20196;-80
2024/02/28 03:08:47;;;;;;;2.67;2.58;;;6.40;99.90;;;;;;5051472;28;20488;-80
2024/02/28 03:11:15;;;;;;;4.47;4.22;;;6.50;99.90;;;;;;5035638;28;20216;-80
2024/02/28 03:13:42;;;;;;;6.78;5.53;;;6.50;99.90;;;;;;5045496;28;20275;-80
2024/02/28 03:16:09;;;;;;;7.25;6.72;;;6.50;99.90;;;;;;5039848;28;20593;-82
2024/02/28 03:18:35;;;;;;;4.85;4.57;;;6.50;99.90;;;;;;5056416;28;20449;-80
2024/02/28 03:21:03;;;;;;;3.85;3.53;;;6.50;99.90;;;;;;5048491;28;20254;-82
2024/02/28 03:23:30;;;;;;;5.22;4.85;;;6.60;99.90;;;;;;5042138;28;20239;-79
2024/02/28 03:25:57;;;;;;;5.63;5.05;;;6.70;99.90;;;;;;5052943;28;20303;-80
2024/02/28 03:28:24;;;;;;;3.70;3.45;;;6.60;99.90;;;;;;5029939;28;20232;-80
2024/02/28 03:30:50;;;;;;;8.52;7.80;;;6.50;99.90;;;;;;5046485;28;20275;-81
2024/02/28 03:33:17;;;;;;;10.82;9.77;;;6.50;99.90;;;;;;5046439;28;20208;-81
2024/02/28 03:35:45;;;;;;;7.60;7.10;;;6.60;99.90;;;;;;5039939;28;20208;-80
2024/02/28 03:38:12;;;;;;;6.68;5.75;;;6.50;99.90;;;;;;5048518;28;20272;-79
2024/02/28 03:40:40;;;;;;;7.43;6.82;;;6.60;99.90;;;;;;5049657;28;20259;-81
2024/02/28 03:43:07;;;;;;;8.60;7.05;;;6.50;99.90;;;;;;5048308;28;20220;-80
2024/02/28 03:45:38;;;;;;;3.10;3.00;;;6.50;99.90;;;;;;5044568;28;20692;-80
2024/02/28 03:48:05;;;;;;;6.22;4.28;;;6.60;99.90;;;;;;5031080;28;20216;-80
2024/02/28 03:50:33;;;;;;;3.60;3.42;;;6.50;99.90;;;;;;5055700;28;20242;-80
2024/02/28 03:53:00;;;;;;;6.45;5.55;;;6.60;99.90;;;;;;5063236;28;20207;-83
2024/02/28 03:55:27;;;;;;;3.05;2.85;;;6.60;99.90;;;;;;5065357;28;20259;-80
2024/02/28 03:57:54;;;;;;;4.22;3.92;;;6.60;99.90;;;;;;5047584;28;20269;-80
2024/02/28 04:00:21;;;;;;;4.38;4.00;;;6.60;99.90;;;;;;5047036;28;20255;-79
2024/02/28 04:02:48;;;;;;;3.03;2.92;;;6.50;99.90;;;;;;5037438;28;20212;-79
2024/02/28 04:05:17;;;;;;;6.57;5.93;;;6.60;99.90;;;;;;5056748;28;20224;-80
2024/02/28 04:07:44;;;;;;;5.43;4.53;;;6.60;99.90;;;;;;5055969;28;20230;-79
2024/02/28 04:10:11;;;;;;;3.08;2.97;;;6.60;99.90;;;;;;5039699;28;20246;-79
2024/02/28 04:12:38;;;;;;;2.90;2.70;;;6.60;99.90;;;;;;5047089;28;20303;-81
2024/02/28 04:15:05;;;;;;;2.40;2.30;;;6.80;99.90;;;;;;5038362;28;20246;-81
2024/02/28 04:17:32;;;;;;;10.63;5.88;;;6.60;99.90;;;;;;5044899;28;20216;-79
2024/02/28 04:20:04;;;;;;;6.72;6.32;;;6.60;99.90;;;;;;5045721;28;20213;-79
2024/02/28 04:22:31;;;;;;;5.32;4.82;;;6.50;99.90;;;;;;5046998;28;20280;-81
2024/02/28 04:24:58;;;;;;;3.15;3.05;;;6.60;99.90;;;;;;5046397;28;20302;-81
2024/02/28 04:27:25;;;;;;;4.20;4.00;;;6.60;99.90;;;;;;5050477;28;20233;-80
2024/02/28 04:29:52;;;;;;;3.92;3.72;;;6.60;99.90;;;;;;5034697;28;20650;-80
2024/02/28 04:32:19;;;;;;;6.55;6.20;;;6.50;99.90;;;;;;5040794;28;20445;-79
2024/02/28 04:34:46;;;;;;;8.23;7.63;;;6.60;99.90;;;;;;5049784;28;20235;-81
2024/02/28 04:37:13;;;;;;;7.60;6.97;;;6.60;99.90;;;;;;5039405;28;20207;-79
2024/02/28 04:39:40;;;;;;;6.82;6.40;;;6.60;99.90;;;;;;5029711;28;20212;-79
2024/02/28 04:42:07;;;;;;;3.83;3.63;;;6.50;99.90;;;;;;5036322;28;20204;-82
2024/02/28 04:44:34;;;;;;;5.25;4.88;;;6.80;99.90;;;;;;5052100;28;20259;-82
2024/02/28 04:47:02;;;;;;;4.78;4.35;;;6.60;99.90;;;;;;5049199;28;20205;-81
2024/02/28 04:49:29;;;;;;;3.97;3.78;;;6.60;99.90;;;;;;5052118;28;20255;-80
2024/02/28 04:51:56;;;;;;;5.03;4.78;;;6.60;99.90;;;;;;5046116;28;20275;-82
2024/02/28 04:54:23;;;;;;;4.05;3.75;;;6.60;99.90;;;;;;5040404;28;20215;-82
2024/02/28 04:56:51;;;;;;;9.10;6.80;;;6.50;99.90;;;;;;5051500;28;20267;-81
2024/02/28 04:59:18;;;;;;;3.60;3.40;;;6.60;99.90;;;;;;5046051;28;20239;-81
2024/02/28 05:01:45;;;;;;;3.75;3.50;;;6.50;99.90;;;;;;5042110;28;20275;-80
2024/02/28 05:04:14;;;;;;;3.83;3.53;;;6.50;99.90;;;;;;5035023;28;20255;-79
2024/02/28 05:06:41;;;;;;;5.70;5.20;;;6.50;99.90;;;;;;5041882;28;20205;-80
2024/02/28 05:09:08;;;;;;;2.95;2.83;;;6.50;99.90;;;;;;5044148;28;20480;-79
2024/02/28 05:11:35;;;;;;;5.03;4.72;;;6.50;99.90;;;;;;5042859;28;20214;-78
2024/02/28 05:14:03;;;;;;;6.53;6.05;;;6.70;99.90;;;;;;5043387;28;20205;-81
2024/02/28 05:16:30;;;;;;;6.15;4.90;;;6.60;99.90;;;;;;5045528;28;20279;-82
2024/02/28 05:18:57;;;;;;;2.85;2.75;;;6.70;99.90;;;;;;5048338;28;20213;-82
2024/02/28 05:21:26;;;;;;;0.70;0.70;;;6.50;99.90;;;;;;5031980;28;20216;-80
2024/02/28 05:23:53;;;;;;;1.55;1.55;;;6.50;99.90;;;;;;5044146;28;20419;-82
2024/02/28 05:26:20;;;;;;;6.13;5.53;;;6.50;99.90;;;;;;5039572;28;20558;-81
2024/02/28 05:28:47;;;;;;;8.23;3.90;;;6.50;99.90;;;;;;5048162;28;20231;-83
2024/02/28 05:31:23;;;;;;;1.95;1.85;;;6.50;99.90;;;;;;5054090;28;20273;-81
2024/02/28 05:33:54;;;;;;;6.60;4.60;;;6.50;99.90;;;;;;5049453;28;20204;-82
2024/02/28 05:36:22;;;;;;;2.03;1.95;;;6.50;99.90;;;;;;5056087;28;20411;-81
2024/02/28 05:38:50;;;;;;;3.08;2.88;;;6.50;99.90;;;;;;5043586;28;20277;-81
2024/02/28 05:41:21;;;;;;;2.85;2.65;;;6.50;99.90;;;;;;5045679;28;20202;-82
2024/02/28 05:43:50;;;;;;;4.80;4.55;;;6.70;99.90;;;;;;5043022;28;20770;-81
2024/02/28 05:46:18;;;;;;;5.13;4.65;;;6.60;99.90;;;;;;5053336;28;20208;-82
2024/02/28 05:48:46;;;;;;;4.78;4.47;;;6.50;99.90;;;;;;5041300;28;20238;-81
2024/02/28 05:51:13;;;;;;;6.95;6.35;;;6.70;99.90;;;;;;5036500;28;20205;-82
2024/02/28 05:53:42;;;;;;;1.60;1.50;;;6.60;99.90;;;;;;5051089;28;20216;-83
2024/02/28 05:56:13;;;;;;;14.05;9.98;;;6.60;99.90;;;;;;5051120;28;20204;-82
2024/02/28 05:58:44;;;;;;;8.70;8.10;;;6.60;99.90;;;;;;5047786;28;20208;-81
2024/02/28 06:01:12;;;;;;;1.50;1.42;;;6.60;99.90;;;;;;5037472;28;20209;-81
2024/02/28 06:03:39;;;;;;;2.10;2.00;;;6.70;99.90;;;;;;5051430;28;20238;-81
2024/02/28 06:06:07;;;;;;;7.32;6.43;;;6.60;99.90;;;;;;5053428;28;20206;-79
2024/02/28 06:08:37;;;;;;;4.40;4.03;;;6.50;99.90;;;;;;5044298;28;20524;-79
2024/02/28 06:11:05;;;;;;;4.30;4.00;;;6.60;99.90;;;;;;5041579;28;20268;-78
2024/02/28 06:13:33;;;;;;;6.18;3.70;;;6.50;99.90;;;;;;5040230;28;20219;-79
2024/02/28 06:16:00;;;;;;;4.18;3.88;;;6.60;99.90;;;;;;5044391;28;20285;-79
2024/02/28 06:18:27;;;;;;;2.95;2.75;;;6.60;99.90;;;;;;5035636;28;20259;-79
2024/02/28 06:20:55;;;;;;;23.20;8.20;;;6.60;99.90;;;;;;5042534;28;20200;-79
2024/02/28 06:23:22;;;;;;;2.95;2.75;;;6.60;99.90;;;;;;5047191;28;20252;-80
2024/02/28 06:25:59;;;;;;;1.40;1.33;;;6.60;99.90;;;;;;5053719;28;20593;-79
2024/02/28 06:28:26;;;;;;;3.42;3.20;;;6.70;99.90;;;;;;5042898;28;20208;-78
2024/02/28 06:30:53;;;;;;;4.05;3.75;;;6.70;99.90;;;;;;5051973;28;20230;-77
2024/02/28 06:33:20;;;;;;;7.32;4.72;;;6.60;99.90;;;;;;5042045;28;20208;-79
2024/02/28 06:35:47;;;;;;;5.22;4.72;;;6.70;99.90;;;;;;5047784;28;20210;-79
2024/02/28 06:38:14;;;;;;;1.13;1.13;;;6.80;99.90;;;;;;5040788;28;20223;-77
2024/02/28 06:40:41;;;;;;;1.98;1.83;;;6.80;99.90;;;;;;5043628;28;20260;-81
2024/02/28 06:43:08;;;;;;;4.30;2.65;;;6.80;99.90;;;;;;5035945;28;20273;-80
2024/02/28 06:45:36;;;;;;;3.58;3.40;;;6.80;99.90;;;;;;5038394;28;20741;-80
2024/02/28 06:48:05;;;;;;;4.55;4.25;;;6.90;99.90;;;;;;5045053;28;20734;-78
2024/02/28 06:50:32;;;;;;;3.13;2.25;;;6.90;99.90;;;;;;5048963;28;20239;-80
2024/02/28 06:52:59;;;;;;;3.67;3.47;;;6.90;99.90;;;;;;5049721;28;20215;-80
2024/02/28 06:55:26;;;;;;;2.65;2.55;;;7.00;99.90;;;;;;5048494;28;20219;-80
2024/02/28 06:57:54;;;;;;;4.15;3.95;;;7.00;99.90;;;;;;5047272;28;20252;-79
2024/02/28 07:00:24;;;;;;;3.72;3.53;;;7.00;99.90;;;;;;5042757;28;20210;-81
2024/02/28 07:02:51;;;;;;;4.40;4.13;;;7.10;99.90;;;;;;5045198;28;20550;-79
2024/02/28 07:05:18;;;;;;;5.30;3.70;;;7.10;99.90;;;;;;5028401;28;20273;-79
2024/02/28 07:07:45;;;;;;;5.22;4.85;;;7.10;99.90;;;;;;5051436;28;20203;-78
2024/02/28 07:10:13;;;;;;;1.98;1.88;;;7.20;99.90;;;;;;5037263;28;20267;-80
2024/02/28 07:12:42;;;;;;;2.08;1.98;;;7.20;99.90;;;;;;5038593;28;20219;-79
2024/02/28 07:15:09;;;;;;;2.13;2.03;;;7.20;99.90;;;;;;5038701;28;20421;-78
2024/02/28 07:17:37;;;;;;;2.38;2.28;;;7.30;99.90;;;;;;5037596;28;20566;-78
2024/02/28 07:20:04;;;;;;;1.60;1.55;;;7.20;99.90;;;;;;5040146;28;20207;-79
2024/02/28 07:22:31;;;;;;;1.48;1.40;;;7.30;99.90;;;;;;5046227;28;20207;-79
2024/02/28 07:24:58;;;;;;;1.52;1.50;;;7.30;99.90;;;;;;5039448;28;20259;-77
2024/02/28 07:27:25;;;;;;;3.30;3.10;;;7.40;99.90;;;;;;5054255;28;20226;-78
2024/02/28 07:29:52;;;;;;;1.77;1.75;;;7.30;99.90;;;;;;5051710;28;20396;-78
2024/02/28 07:32:19;;;;;;;1.10;1.08;;;7.40;99.90;;;;;;5057575;28;20294;-79
2024/02/28 07:34:46;;;;;;;1.70;1.65;;;7.30;99.90;;;;;;5052222;28;20287;-77
2024/02/28 07:37:13;;;;;;;2.72;2.63;;;7.50;99.90;;;;;;5032480;28;20246;-77
2024/02/28 07:39:40;;;;;;;1.75;1.65;;;7.50;99.90;;;;;;5036674;28;20215;-77
2024/02/28 07:42:07;;;;;;;1.60;1.55;;;7.50;99.90;;;;;;5038470;28;20231;-77
2024/02/28 07:44:33;;;;;;;0.60;0.60;;;7.60;99.90;;;;;;5036187;28;20246;-78
2024/02/28 07:47:00;;;;;;;1.40;1.40;;;7.50;99.90;;;;;;5048566;28;20203;-79
2024/02/28 07:49:27;;;;;;;5.38;3.55;;;7.60;99.90;;;;;;5042612;28;20204;-78
2024/02/28 07:51:54;;;;;;;0.40;0.40;;;7.50;99.90;;;;;;5045913;28;20450;-77
2024/02/28 07:54:22;;;;;;;1.65;1.65;;;7.50;99.90;;;;;;5040963;28;20204;-78
2024/02/28 07:56:49;;;;;;;1.65;1.60;;;7.60;99.90;;;;;;5041035;28;20205;-77
2024/02/28 07:59:18;;;;;;;3.13;2.92;;;7.60;99.90;;;;;;5024476;28;20266;-77
2024/02/28 08:01:45;;;;;;;2.05;1.95;;;7.70;99.90;;;;;;5036726;28;20689;-79
2024/02/28 08:04:12;;;;;;;1.60;1.60;;;7.50;99.90;;;;;;5040657;28;20212;-78
2024/02/28 08:06:40;;;;;;;3.35;3.05;;;7.50;99.90;;;;;;5034782;28;20236;-79
2024/02/28 08:09:07;;;;;;;1.35;1.17;;;7.40;99.90;;;;;;5038579;28;20204;-76
2024/02/28 08:11:39;;;;;;;1.75;1.65;;;7.50;99.90;;;;;;5043151;28;20208;-78
2024/02/28 08:14:06;;;;;;;2.40;2.30;;;7.60;99.90;;;;;;5044057;28;20216;-77
2024/02/28 08:16:33;;;;;;;2.72;2.63;;;7.50;99.90;;;;;;5036010;28;20215;-78
2024/02/28 08:19:00;;;;;;;2.75;2.55;;;7.50;99.90;;;;;;5034629;28;20231;-77
2024/02/28 08:21:27;;;;;;;0.90;0.90;;;7.70;99.90;;;;;;5034179;28;20204;-78
2024/02/28 08:23:55;;;;;;;1.50;1.40;;;7.60;99.90;;;;;;5043132;28;20212;-77
2024/02/28 08:26:24;;;;;;;1.10;1.10;;;7.60;99.90;;;;;;5034719;28;20291;-76
2024/02/28 08:28:51;;;;;;;0.52;0.52;;;7.60;99.90;;;;;;5034848;28;20624;-77
2024/02/28 08:31:18;;;;;;;2.00;1.90;;;7.50;99.90;;;;;;5033384;28;20208;-78
2024/02/28 08:33:44;;;;;;;4.95;3.25;;;7.50;99.90;;;;;;5042661;28;20263;-78
2024/02/28 08:36:11;;;;;;;1.60;1.25;;;7.50;99.90;;;;;;5041394;28;20204;-78
2024/02/28 08:38:38;;;;;;;0.40;0.40;;;7.50;99.90;;;;;;5040545;28;20275;-77
2024/02/28 08:41:07;;;;;;;1.10;1.00;;;7.60;99.90;;;;;;5041247;28;20210;-77
2024/02/28 08:43:38;;;;;;;0.70;0.70;;;7.50;99.90;;;;;;5042880;28;20214;-79
2024/02/28 08:46:05;;;;;;;3.55;3.35;;;7.50;99.90;;;;;;5039487;28;20440;-76
2024/02/28 08:48:33;;;;;;;0.60;0.60;;;7.50;99.90;;;;;;5049320;28;20205;-77
2024/02/28 08:51:00;;;;;;;1.25;1.10;;;7.60;99.90;;;;;;5043811;28;20196;-80
2024/02/28 08:53:27;;;;;;;1.02;1.02;;;7.50;99.90;;;;;;5049553;28;20204;-79
2024/02/28 08:55:54;;;;;;;0.75;0.75;;;7.30;99.90;;;;;;5045135;28;20200;-80
2024/02/28 08:58:21;;;;;;;1.30;1.30;;;7.50;99.90;;;;;;5060432;28;20246;-77
2024/02/28 09:00:49;;;;;;;2.95;1.33;;;7.60;99.90;;;;;;5045859;28;20268;-78
2024/02/28 09:03:16;;;;;;;2.05;1.95;;;7.50;99.90;;;;;;5050261;28;20208;-79
2024/02/28 09:05:43;;;;;;;1.08;1.08;;;7.60;99.90;;;;;;5050664;28;20309;-79
2024/02/28 09:08:10;;;;;;;2.47;2.38;;;7.60;99.90;;;;;;5050625;28;20204;-79
2024/02/28 09:10:40;;;;;;;0.85;0.85;;;7.50;99.90;;;;;;5050291;28;20210;-78
2024/02/28 09:13:07;;;;;;;2.35;2.25;;;7.50;99.90;;;;;;5050888;28;20196;-78
2024/02/28 09:15:34;;;;;;;1.30;1.30;;;7.60;99.90;;;;;;5049508;28;20246;-80
2024/02/28 09:18:02;;;;;;;1.35;1.35;;;7.50;99.90;;;;;;5037716;28;20317;-78
2024/02/28 09:20:29;;;;;;;0.60;0.60;;;7.50;99.90;;;;;;5049169;28;20493;-76
2024/02/28 09:22:57;;;;;;;3.10;2.45;;;7.70;99.90;;;;;;5043587;28;20224;-77
2024/02/28 09:25:24;;;;;;;0.77;0.77;;;7.60;99.90;;;;;;5040239;28;20228;-78
2024/02/28 09:27:54;;;;;;;3.08;2.88;;;7.60;99.90;;;;;;5041185;28;20208;-77
2024/02/28 09:30:22;;;;;;;3.58;3.28;;;7.60;99.90;;;;;;5039438;28;20210;-79
2024/02/28 09:32:51;;;;;;;1.50;1.27;;;7.50;99.90;;;;;;5040516;28;20270;-77
2024/02/28 09:35:18;;;;;;;1.88;1.77;;;7.60;99.90;;;;;;5045210;28;20204;-82
2024/02/28 09:37:45;;;;;;;1.73;1.67;;;7.50;99.90;;;;;;5042862;28;20239;-76
2024/02/28 09:40:12;;;;;;;3.97;3.67;;;7.40;99.90;;;;;;5047879;28;20204;-79
2024/02/28 09:42:40;;;;;;;5.57;5.13;;;7.40;99.90;;;;;;5043136;28;20279;-78
2024/02/28 09:45:10;;;;;;;1.70;1.63;;;7.50;99.90;;;;;;5039433;28;20282;-78
2024/02/28 09:47:37;;;;;;;1.60;1.55;;;7.40;99.90;;;;;;5038369;28;20285;-78
2024/02/28 09:50:04;;;;;;;3.42;3.13;;;7.40;99.90;;;;;;5042246;28;20305;-76
2024/02/28 09:52:32;;;;;;;2.25;2.15;;;7.40;99.90;;;;;;5033681;28;20200;-77
2024/02/28 09:54:59;;;;;;;4.18;3.88;;;7.40;99.90;;;;;;5047112;28;20212;-79
2024/02/28 09:57:28;;;;;;;2.88;2.30;;;7.30;99.90;;;;;;5046152;28;20486;-78
2024/02/28 09:59:59;;;;;;;3.13;3.03;;;7.40;99.90;;;;;;5038972;28;20242;-79
2024/02/28 10:02:28;;;;;;;1.05;1.05;;;7.40;99.90;;;;;;5037335;28;20208;-78
2024/02/28 10:04:58;;;;;;;1.33;1.23;;;7.30;99.90;;;;;;5042358;28;20209;-78
2024/02/28 10:07:24;;;;;;;1.95;1.85;;;7.30;99.90;;;;;;5044479;28;20300;-78
2024/02/28 10:09:51;;;;;;;0.40;0.40;;;7.20;99.90;;;;;;5041459;28;20200;-77
2024/02/28 10:12:20;;;;;;;1.00;1.00;;;7.30;99.90;;;;;;5045094;28;20228;-78
2024/02/28 10:14:50;;;;;;;0.77;0.77;;;7.30;99.90;;;;;;5038235;28;20209;-79
2024/02/28 10:17:18;;;;;;;0.93;0.93;;;7.60;99.90;;;;;;5039248;28;20242;-79
2024/02/28 10:19:45;;;;;;;4.32;3.47;;;7.50;99.90;;;;;;5036009;28;20208;-76
2024/02/28 10:22:11;;;;;;;0.40;0.40;;;7.30;99.90;;;;;;5041395;28;20205;-77
2024/02/28 10:24:39;;;;;;;1.25;1.25;;;7.30;99.90;;;;;;5056970;28;20208;-77
2024/02/28 10:27:05;;;;;;;0.63;0.63;;;7.30;99.90;;;;;;5035542;28;20229;-78
2024/02/28 10:29:32;;;;;;;1.33;1.23;;;7.20;99.90;;;;;;5040519;28;20202;-78
2024/02/28 10:32:00;;;;;;;1.73;1.00;;;7.10;99.90;;;;;;5039607;28;20213;-80
2024/02/28 10:34:27;;;;;;;1.20;1.20;;;7.10;99.90;;;;;;5048438;28;20413;-78
2024/02/28 10:36:54;;;;;;;0.60;0.60;;;7.20;99.90;;;;;;5047668;28;20579;-78
2024/02/28 10:39:22;;;;;;;2.65;2.55;;;7.00;99.90;;;;;;5049330;28;20231;-77
2024/02/28 10:41:52;;;;;;;0.77;0.77;;;7.10;99.90;;;;;;5037698;28;20466;-76
2024/02/28 10:44:20;;;;;;;2.10;1.98;;;7.00;99.90;;;;;;5036618;28;20493;-78
2024/02/28 10:46:50;;;;;;;1.67;1.55;;;7.00;99.90;;;;;;5040146;28;20240;-79
2024/02/28 10:49:17;;;;;;;1.77;1.67;;;6.90;99.90;;;;;;5051489;28;20454;-78
2024/02/28 10:51:48;;;;;;;3.47;3.15;;;6.90;99.90;;;;;;5048446;28;20210;-81
2024/02/28 10:54:16;;;;;;;0.50;0.50;;;6.80;99.90;;;;;;5036170;28;20564;-76
2024/02/28 10:56:43;;;;;;;2.25;2.15;;;6.80;99.90;;;;;;5038649;28;20212;-80
2024/02/28 10:59:12;;;;;;;1.85;1.75;;;6.80;99.90;;;;;;5044915;28;20212;-77
2024/02/28 11:01:43;;;;;;;1.70;1.60;;;6.80;99.90;;;;;;5046935;28;20390;-79
2024/02/28 11:04:16;;;;;;;1.27;1.17;;;6.80;99.90;;;;;;5036134;28;20205;-78
2024/02/28 11:06:55;;;;;;;0.50;0.50;;;6.90;99.90;;;;;;5043101;28;20237;-77
2024/02/28 11:09:25;;;;;;;2.47;2.28;;;6.80;99.90;;;;;;5032959;28;20211;-80
2024/02/28 11:11:53;;;;;;;0.68;0.68;;;6.80;99.90;;;;;;5035206;28;20305;-78
2024/02/28 11:14:24;;;;;;;1.48;1.38;;;6.80;99.90;;;;;;5045102;28;20520;-77
2024/02/28 11:17:01;;;;;;;1.20;1.20;;;6.80;99.90;;;;;;5028722;28;20835;-77
2024/02/28 11:19:30;;;;;;;1.33;1.33;;;6.60;99.90;;;;;;5037964;28;20270;-79
2024/02/28 11:21:58;;;;;;;1.10;1.05;;;6.70;99.90;;;;;;5031719;28;20279;-77
2024/02/28 11:24:31;;;;;;;0.90;0.90;;;6.80;99.90;;;;;;5036954;28;20493;-79
2024/02/28 11:26:58;;;;;;;0.50;0.50;;;6.90;99.90;;;;;;5048130;28;20268;-79
2024/02/28 11:29:28;;;;;;;1.50;1.40;;;6.90;99.90;;;;;;5041670;28;20205;-79
2024/02/28 11:31:55;;;;;;;0.90;0.88;;;6.90;99.90;;;;;;5039261;28;20512;-77
2024/02/28 11:34:22;;;;;;;0.50;0.50;;;6.80;99.90;;;;;;5033502;28;20268;-77
2024/02/28 11:36:51;;;;;;;0.88;0.88;;;6.70;99.90;;;;;;5033605;28;20212;-79
2024/02/28 11:39:19;;;;;;;0.50;0.50;;;6.80;99.90;;;;;;5039692;28;20206;-79
2024/02/28 11:41:47;;;;;;;1.23;1.23;;;6.80;99.90;;;;;;5031719;28;20414;-79
2024/02/28 11:44:16;;;;;;;0.60;0.60;;;6.80;99.90;;;;;;5049721;28;20258;-77
2024/02/28 11:46:47;;;;;;;3.22;3.03;;;6.90;99.90;;;;;;5035596;28;20799;-77
2024/02/28 11:49:14;;;;;;;1.52;1.42;;;6.90;99.90;;;;;;5032044;28;20270;-77
2024/02/28 11:51:45;;;;;;;2.05;1.98;;;6.80;99.90;;;;;;5043484;28;20298;-76
2024/02/28 11:54:12;;;;;;;0.82;0.82;;;6.80;99.90;;;;;;5032754;28;20215;-77
2024/02/28 11:56:40;;;;;;;0.85;0.85;;;6.80;99.90;;;;;;5037886;28;20216;-77
2024/02/28 11:59:10;;;;;;;0.50;0.50;;;6.80;99.90;;;;;;5032564;28;20227;-76
2024/02/28 12:01:40;;;;;;;0.60;0.60;;;6.80;99.90;;;;;;5028829;28;20673;-80
2024/02/28 12:04:08;;;;;;;0.85;0.85;;;6.70;99.90;;;;;;5038242;28;20206;-78
2024/02/28 12:06:37;;;;;;;2.00;1.90;;;6.70;99.90;;;;;;5037757;28;20233;-79
2024/02/28 12:09:08;;;;;;;1.00;1.00;;;6.70;99.90;;;;;;5035884;28;20216;-78
2024/02/28 12:11:37;;;;;;;1.58;1.55;;;6.70;99.90;;;;;;5029324;28;20230;-77
2024/02/28 12:14:11;;;;;;;1.02;1.02;;;6.70;99.90;;;;;;5047868;28;20234;-78
2024/02/28 12:16:39;;;;;;;0.70;0.70;;;6.80;99.90;;;;;;5025362;28;20300;-78
2024/02/28 12:19:10;;;;;;;0.85;0.85;;;6.80;99.90;;;;;;5046775;28;20202;-81
2024/02/28 12:21:38;;;;;;;10.10;2.05;;;6.90;99.90;;;;;;5032588;28;20209;-78
2024/02/28 12:24:12;;;;;;;1.70;1.65;;;6.70;99.90;;;;;;5043205;28;20215;-78
2024/02/28 12:26:39;;;;;;;0.52;0.52;;;6.70;99.90;;;;;;5040782;28;20323;-77
2024/02/28 12:29:07;;;;;;;1.33;1.30;;;6.60;99.90;;;;;;5051528;28;20227;-79
2024/02/28 12:31:34;;;;;;;1.63;1.52;;;6.80;99.90;;;;;;5043432;28;20202;-79
2024/02/28 12:34:01;;;;;;;0.70;0.70;;;6.50;99.90;;;;;;5046860;28;20272;-79
2024/02/28 12:36:28;;;;;;;2.85;2.65;;;6.50;99.90;;;;;;5038139;28;20275;-77
2024/02/28 12:38:55;;;;;;;0.93;0.93;;;6.50;99.90;;;;;;5035177;28;20524;-79
2024/02/28 12:41:22;;;;;;;1.40;1.40;;;6.50;99.90;;;;;;5039582;28;20227;-78
2024/02/28 12:43:49;;;;;;;1.48;1.48;;;6.60;99.90;;;;;;5045142;28;20286;-79
2024/02/28 12:46:16;;;;;;;2.15;1.95;;;6.60;99.90;;;;;;5039992;28;20296;-79
2024/02/28 12:48:44;;;;;;;2.90;2.70;;;6.60;99.90;;;;;;5038776;28;20464;-78
2024/02/28 12:51:20;;;;;;;1.48;1.48;;;6.60;99.90;;;;;;5041465;28;20211;-77
2024/02/28 12:53:49;;;;;;;1.05;1.05;;;6.50;99.90;;;;;;5039229;28;20574;-77
2024/02/28 12:56:18;;;;;;;1.13;1.13;;;6.50;99.90;;;;;;5037549;28;20205;-77
2024/02/28 12:58:45;;;;;;;0.93;0.93;;;6.30;99.90;;;;;;5040843;28;20277;-76